createdAt,value
2023-04-24T00:09:51.793Z,99696.19
2023-04-24T00:12:19.479Z,99706.56
2023-04-24T00:14:49.636Z,99712.56
2023-04-24T00:17:16.719Z,99715.97
2023-04-24T00:19:44.076Z,99717.72
2023-04-24T00:22:11.888Z,99716.00
2023-04-24T00:24:38.927Z,99725.44
2023-04-24T00:27:05.982Z,99726.25
2023-04-24T00:29:33.055Z,99715.09
2023-04-24T00:32:00.566Z,99722.84
2023-04-24T00:34:27.652Z,99730.66
2023-04-24T00:36:55.770Z,99725.41
2023-04-24T00:39:23.945Z,99727.16
2023-04-24T00:41:52.564Z,99724.56
2023-04-24T00:44:19.892Z,99729.78
2023-04-24T00:46:47.532Z,99728.88
2023-04-24T00:49:15.446Z,99729.69
2023-04-24T00:51:46.627Z,99734.03
2023-04-24T00:54:14.292Z,99737.44
2023-04-24T00:56:42.541Z,99737.44
2023-04-24T00:59:10.209Z,99742.59
2023-04-24T01:01:37.367Z,99745.22
2023-04-24T01:04:04.910Z,99746.09
2023-04-24T01:06:32.901Z,99734.00
2023-04-24T01:09:01.532Z,99748.69
2023-04-24T01:11:29.100Z,99754.72
2023-04-24T01:13:57.275Z,99748.59
2023-04-24T01:16:24.421Z,99757.31
2023-04-24T01:18:52.401Z,99765.84
2023-04-24T01:21:22.530Z,99758.09
2023-04-24T01:23:50.263Z,99766.78
2023-04-24T01:26:18.827Z,99771.16
2023-04-24T01:28:45.930Z,99769.44
2023-04-24T01:31:13.028Z,99766.00
2023-04-24T01:33:40.411Z,99766.88
2023-04-24T01:36:08.610Z,99764.31
2023-04-24T01:38:35.910Z,99766.88
2023-04-24T01:41:03.540Z,99775.50
2023-04-24T01:43:30.844Z,99767.78
2023-04-24T01:45:57.893Z,99770.31
2023-04-24T01:48:24.938Z,99776.34
2023-04-24T01:50:52.302Z,99780.66
2023-04-24T01:53:19.480Z,99786.69
2023-04-24T01:55:47.465Z,99782.34
2023-04-24T01:58:14.869Z,99784.09
2023-04-24T02:00:42.064Z,99784.09
2023-04-24T02:03:09.245Z,99782.38
2023-04-24T02:05:36.326Z,99786.69
2023-04-24T02:08:03.400Z,99773.75
2023-04-24T02:10:30.522Z,99785.00
2023-04-24T02:12:57.552Z,99781.50
2023-04-24T02:15:24.632Z,99779.84
2023-04-24T02:17:52.176Z,99781.53
2023-04-24T02:20:19.511Z,99776.38
2023-04-24T02:22:47.005Z,99784.16
2023-04-24T02:25:14.049Z,99784.13
2023-04-24T02:27:41.147Z,99785.88
2023-04-24T02:30:09.111Z,99785.88
2023-04-24T02:32:36.702Z,99783.28
2023-04-24T02:35:04.022Z,99778.16
2023-04-24T02:37:31.027Z,99785.03
2023-04-24T02:39:58.068Z,99782.41
2023-04-24T02:42:25.238Z,99791.03
2023-04-24T02:44:53.442Z,99792.75
2023-04-24T02:47:20.689Z,99788.47
2023-04-24T02:49:47.849Z,99787.59
2023-04-24T02:52:16.118Z,99787.59
2023-04-24T02:54:43.994Z,99788.50
2023-04-24T02:57:11.083Z,99785.88
2023-04-24T02:59:38.191Z,99786.78
2023-04-24T03:02:05.378Z,99795.31
2023-04-24T03:04:33.178Z,99788.34
2023-04-24T03:07:00.711Z,99785.81
2023-04-24T03:09:27.750Z,99788.31
2023-04-24T03:11:54.846Z,99786.56
2023-04-24T03:14:22.446Z,99785.78
2023-04-24T03:16:49.512Z,99787.50
2023-04-24T03:19:16.738Z,99780.56
2023-04-24T03:21:43.784Z,99790.91
2023-04-24T03:24:10.887Z,99780.53
2023-04-24T03:26:37.882Z,99780.56
2023-04-24T03:29:04.887Z,99784.84
2023-04-24T03:31:31.996Z,99785.69
2023-04-24T03:33:58.986Z,99789.13
2023-04-24T03:36:27.138Z,99795.16
2023-04-24T03:38:54.156Z,99789.13
2023-04-24T03:41:21.335Z,99799.47
2023-04-24T03:43:48.449Z,99790.88
2023-04-24T03:46:16.300Z,99799.50
2023-04-24T03:48:43.472Z,99799.50
2023-04-24T03:51:10.597Z,99794.34
2023-04-24T03:53:37.726Z,99796.06
2023-04-24T03:56:04.763Z,99799.53
2023-04-24T03:58:32.008Z,99800.38
2023-04-24T04:00:59.433Z,99802.94
2023-04-24T04:03:27.153Z,99797.78
2023-04-24T04:05:55.172Z,99808.97
2023-04-24T04:08:22.514Z,99806.38
2023-04-24T04:10:49.812Z,99803.78
2023-04-24T04:13:16.884Z,99807.22
2023-04-24T04:15:44.636Z,99813.22
2023-04-24T04:18:12.207Z,99814.06
2023-04-24T04:20:39.321Z,99817.50
2023-04-24T04:23:06.373Z,99817.59
2023-04-24T04:25:33.681Z,99802.03
2023-04-24T04:28:00.771Z,99814.97
2023-04-24T04:30:30.369Z,99825.31
2023-04-24T04:32:57.589Z,99819.31
2023-04-24T04:35:25.847Z,99824.53
2023-04-24T04:37:54.340Z,99827.97
2023-04-24T04:40:22.472Z,99828.84
2023-04-24T04:42:49.501Z,99836.53
2023-04-24T04:45:17.883Z,99839.97
2023-04-24T04:47:45.365Z,99845.19
2023-04-24T04:50:12.474Z,99841.78
2023-04-24T04:52:39.549Z,99840.94
2023-04-24T04:55:07.387Z,99852.13
2023-04-24T04:57:34.478Z,99852.16
2023-04-24T05:00:02.325Z,99856.47
2023-04-24T05:02:29.486Z,99865.06
2023-04-24T05:04:56.931Z,99871.09
2023-04-24T05:07:24.130Z,99870.28
2023-04-24T05:09:53.376Z,99868.56
2023-04-24T05:12:20.435Z,99872.88
2023-04-24T05:14:47.420Z,99872.91
2023-04-24T05:17:15.076Z,99878.13
2023-04-24T05:19:42.536Z,99883.28
2023-04-24T05:22:10.670Z,99885.88
2023-04-24T05:24:37.880Z,99886.72
2023-04-24T05:27:05.961Z,99890.16
2023-04-24T05:29:34.120Z,99896.16
2023-04-24T05:32:01.845Z,99898.78
2023-04-24T05:34:28.884Z,99903.13
2023-04-24T05:36:55.949Z,99912.53
2023-04-24T05:39:26.061Z,99915.94
2023-04-24T05:41:53.737Z,99915.09
2023-04-24T05:44:20.852Z,99916.81
2023-04-24T05:46:48.144Z,99922.84
2023-04-24T05:49:15.387Z,99926.22
2023-04-24T05:51:42.780Z,99928.84
2023-04-24T05:54:09.855Z,99930.56
2023-04-24T05:56:36.954Z,99939.03
2023-04-24T05:59:04.534Z,99944.13
2023-04-24T06:01:32.494Z,99947.59
2023-04-24T06:03:59.701Z,99957.94
2023-04-24T06:06:28.225Z,99953.56
2023-04-24T06:08:55.460Z,99964.81
2023-04-24T06:11:23.983Z,99962.91
2023-04-24T06:13:51.621Z,99968.88
2023-04-24T06:16:19.515Z,99974.13
2023-04-24T06:18:48.135Z,99976.59
2023-04-24T06:21:17.517Z,99985.16
2023-04-24T06:23:45.085Z,99987.03
2023-04-24T06:26:12.135Z,99995.59
2023-04-24T06:28:39.576Z,99996.31
2023-04-24T06:31:06.660Z,99998.84
2023-04-24T06:33:33.793Z,100004.84
2023-04-24T06:36:01.108Z,100007.44
2023-04-24T06:38:28.207Z,100013.38
2023-04-24T06:40:55.259Z,100025.50
2023-04-24T06:43:22.739Z,100024.59
2023-04-24T06:45:49.864Z,100022.00
2023-04-24T06:48:16.924Z,100031.38
2023-04-24T06:50:43.946Z,100049.50
2023-04-24T06:53:13.499Z,100045.97
2023-04-24T06:55:40.655Z,100071.81
2023-04-24T06:58:07.739Z,100068.34
2023-04-24T07:00:34.739Z,100072.66
2023-04-24T07:03:01.993Z,100087.19
2023-04-24T07:05:29.212Z,100085.44
2023-04-24T07:07:56.332Z,100092.34
2023-04-24T07:10:24.238Z,100094.88
2023-04-24T07:12:51.989Z,100101.94
2023-04-24T07:15:20.450Z,100105.44
2023-04-24T07:17:48.948Z,100119.00
2023-04-24T07:20:16.582Z,100124.06
2023-04-24T07:22:44.202Z,100143.66
2023-04-24T07:25:11.223Z,100143.81
2023-04-24T07:27:38.315Z,100150.63
2023-04-24T07:30:06.055Z,100144.66
2023-04-24T07:32:33.140Z,100157.47
2023-04-24T07:35:00.655Z,100166.78
2023-04-24T07:37:28.754Z,100162.47
2023-04-24T07:39:56.388Z,100177.25
2023-04-24T07:42:23.786Z,100180.66
2023-04-24T07:44:52.721Z,100194.44
2023-04-24T07:47:20.106Z,100191.91
2023-04-24T07:49:47.168Z,100206.38
2023-04-24T07:52:14.260Z,100211.56
2023-04-24T07:54:42.061Z,100205.72
2023-04-24T07:57:09.439Z,100210.13
2023-04-24T07:59:36.593Z,100205.81
2023-04-24T08:02:03.672Z,100220.44
2023-04-24T08:04:31.003Z,100229.03
2023-04-24T08:06:58.296Z,100220.53
2023-04-24T08:09:41.464Z,100238.59
2023-04-24T08:12:08.544Z,100242.66
2023-04-24T08:14:36.087Z,100246.03
2023-04-24T08:17:04.376Z,100254.66
2023-04-24T08:19:31.767Z,100264.47
2023-04-24T08:21:58.791Z,100260.28
2023-04-24T08:24:26.003Z,100277.25
2023-04-24T08:26:55.082Z,100267.00
2023-04-24T08:29:22.159Z,100287.91
2023-04-24T08:31:49.557Z,100283.53
2023-04-24T08:34:16.747Z,100299.69
2023-04-24T08:36:47.484Z,100310.63
2023-04-24T08:39:16.044Z,100324.25
2023-04-24T08:41:46.647Z,100312.41
2023-04-24T08:44:16.664Z,100320.88
2023-04-24T08:46:46.585Z,100318.44
2023-04-24T08:49:17.247Z,100322.16
2023-04-24T08:51:45.131Z,100335.59
2023-04-24T08:54:13.403Z,100333.03
2023-04-24T08:56:42.692Z,100335.63
2023-04-24T08:59:10.000Z,100349.41
2023-04-24T09:01:38.598Z,100364.88
2023-04-24T09:04:07.617Z,100351.06
2023-04-24T09:06:35.818Z,100361.56
2023-04-24T09:09:04.477Z,100359.19
2023-04-24T09:11:33.158Z,100365.94
2023-04-24T09:14:01.737Z,100362.72
2023-04-24T09:16:29.123Z,100365.38
2023-04-24T09:18:56.588Z,100372.22
2023-04-24T09:21:24.285Z,100384.38
2023-04-24T09:24:00.634Z,100384.56
2023-04-24T09:26:32.855Z,100393.16
2023-04-24T09:29:00.781Z,100385.63
2023-04-24T09:31:30.637Z,100389.97
2023-04-24T09:34:01.779Z,100397.13
2023-04-24T09:36:34.056Z,100397.38
2023-04-24T09:39:02.352Z,100408.81
2023-04-24T09:41:32.417Z,100414.44
2023-04-24T09:44:13.250Z,100413.66
2023-04-24T09:46:40.574Z,100439.28
2023-04-24T09:49:13.377Z,100433.09
2023-04-24T09:51:41.624Z,100446.53
2023-04-24T09:54:22.773Z,100444.09
2023-04-24T09:56:53.046Z,100450.28
2023-04-24T09:59:20.929Z,100451.31
2023-04-24T10:01:49.664Z,100447.28
2023-04-24T10:04:28.498Z,100455.28
2023-04-24T10:06:57.730Z,100452.28
2023-04-24T10:09:27.177Z,100463.50
2023-04-24T10:11:55.985Z,100452.22
2023-04-24T10:14:26.038Z,100465.94
2023-04-24T10:16:55.141Z,100457.97
2023-04-24T10:19:23.874Z,100465.06
2023-04-24T10:21:50.951Z,100460.88
2023-04-24T10:24:21.386Z,100467.97
2023-04-24T10:26:52.778Z,100478.88
2023-04-24T10:29:20.728Z,100484.50
2023-04-24T10:31:48.340Z,100492.97
2023-04-24T10:34:17.990Z,100478.47
2023-04-24T10:36:53.591Z,100474.56
2023-04-24T10:39:27.264Z,100484.03
2023-04-24T10:41:58.243Z,100479.97
2023-04-24T10:44:25.833Z,100491.25
2023-04-24T10:46:56.757Z,100491.31
2023-04-24T10:49:31.413Z,100500.66
2023-04-24T10:52:06.076Z,100509.94
2023-04-24T10:54:47.219Z,100511.03
2023-04-24T10:57:23.865Z,100511.81
2023-04-24T11:00:14.287Z,100519.97
2023-04-24T11:02:49.463Z,100517.09
2023-04-24T11:05:22.679Z,100522.06
2023-04-24T11:08:17.031Z,100541.94
2023-04-24T11:10:48.623Z,100549.00
2023-04-24T11:13:17.408Z,100542.47
2023-04-24T11:15:45.059Z,100548.03
2023-04-24T11:18:17.010Z,100548.38
2023-04-24T11:20:48.387Z,100553.84
2023-04-24T11:23:16.913Z,100556.38
2023-04-24T11:25:44.064Z,100547.31
2023-04-24T11:28:17.241Z,100563.09
2023-04-24T11:30:45.118Z,100565.28
2023-04-24T11:33:12.637Z,100562.91
2023-04-24T11:35:42.618Z,100549.16
2023-04-24T11:40:41.118Z,100545.81
2023-04-24T11:43:10.415Z,100557.09
2023-04-24T11:45:37.623Z,100550.09
2023-04-24T11:48:05.074Z,100559.25
2023-04-24T11:50:32.315Z,100569.81
2023-04-24T11:53:01.541Z,100563.19
2023-04-24T11:55:30.313Z,100563.25
2023-04-24T11:57:59.532Z,100571.59
2023-04-24T12:00:29.843Z,100581.56
2023-04-24T12:03:12.530Z,100566.22
2023-04-24T12:05:40.604Z,100581.63
2023-04-24T12:08:07.906Z,100594.03
2023-04-24T12:10:37.064Z,100585.34
2023-04-24T12:13:04.296Z,100601.59
2023-04-24T12:15:31.630Z,100607.28
2023-04-24T12:17:58.859Z,100603.72
2023-04-24T12:20:29.462Z,100613.25
2023-04-24T12:23:01.745Z,100620.91
2023-04-24T12:25:38.241Z,100621.66
2023-04-24T12:28:05.232Z,100615.94
2023-04-24T12:30:35.008Z,100621.56
2023-04-24T12:33:03.601Z,100621.34
2023-04-24T12:35:36.775Z,100622.31
2023-04-24T12:38:09.114Z,100618.88
2023-04-24T12:40:36.342Z,100630.22
2023-04-24T12:43:13.528Z,100643.59
2023-04-24T12:45:40.676Z,100635.59
2023-04-24T12:48:07.858Z,100630.41
2023-04-24T12:50:34.971Z,100635.69
2023-04-24T12:53:02.105Z,100640.03
2023-04-24T12:55:29.153Z,100646.72
2023-04-24T12:57:57.060Z,100657.13
2023-04-24T13:00:24.311Z,100670.91
2023-04-24T13:02:52.875Z,100678.63
2023-04-24T13:05:20.084Z,100697.75
2023-04-24T13:07:47.217Z,100693.03
2023-04-24T13:10:14.399Z,100707.47
2023-04-24T13:12:42.037Z,100684.97
2023-04-24T13:15:09.547Z,100684.56
2023-04-24T13:17:36.631Z,100665.44
2023-04-24T13:20:04.102Z,100663.56
2023-04-24T13:22:31.256Z,100673.28
2023-04-24T13:24:58.408Z,100675.31
2023-04-24T13:27:25.576Z,100684.84
2023-04-24T13:29:53.779Z,100678.75
2023-04-24T13:32:21.158Z,100672.38
2023-04-24T13:34:48.326Z,100684.97
2023-04-24T13:37:16.002Z,100685.78
2023-04-24T13:39:43.056Z,100677.59
2023-04-24T13:42:10.527Z,100690.25
2023-04-24T13:44:37.800Z,100686.81
2023-04-24T13:47:04.950Z,100699.72
2023-04-24T13:49:31.968Z,100695.31
2023-04-24T13:51:59.164Z,100687.09
2023-04-24T13:54:26.993Z,100688.66
2023-04-24T13:56:58.783Z,100692.97
2023-04-24T13:59:26.194Z,100694.84
2023-04-24T14:01:54.360Z,100690.88
2023-04-24T14:04:21.693Z,100702.69
2023-04-24T14:06:50.066Z,100691.59
2023-04-24T14:09:17.151Z,100710.97
2023-04-24T14:11:44.239Z,100702.84
2023-04-24T14:14:11.585Z,100690.81
2023-04-24T14:16:38.644Z,100688.91
2023-04-24T14:19:07.198Z,100693.47
2023-04-24T14:21:34.502Z,100679.31
2023-04-24T14:24:01.827Z,100693.25
2023-04-24T14:26:28.878Z,100703.13
2023-04-24T14:29:07.249Z,100704.81
2023-04-24T14:31:41.443Z,100703.94
2023-04-24T14:34:08.460Z,100707.78
2023-04-24T14:36:36.050Z,100709.97
2023-04-24T14:39:07.818Z,100706.88
2023-04-24T14:41:40.116Z,100709.91
2023-04-24T14:44:07.356Z,100718.00
2023-04-24T14:46:34.695Z,100711.66
2023-04-24T14:49:01.810Z,100705.59
2023-04-24T14:51:28.889Z,100721.84
2023-04-24T14:53:57.554Z,100724.13
2023-04-24T14:56:24.537Z,100739.69
2023-04-24T14:58:53.027Z,100730.47
2023-04-24T15:01:20.183Z,100727.41
2023-04-24T15:03:47.507Z,100726.06
2023-04-24T15:06:15.140Z,100739.63
2023-04-24T15:08:43.067Z,100732.72
2023-04-24T15:11:10.953Z,100737.06
2023-04-24T15:13:37.981Z,100737.00
2023-04-24T15:16:05.920Z,100750.56
2023-04-24T15:18:33.028Z,100739.53
2023-04-24T15:21:00.408Z,100757.75
2023-04-24T15:23:27.620Z,100754.81
2023-04-24T15:25:54.995Z,100754.22
2023-04-24T15:28:22.983Z,100747.47
2023-04-24T15:30:50.047Z,100749.47
2023-04-24T15:33:17.139Z,100752.97
2023-04-24T15:35:44.246Z,100748.34
2023-04-24T15:38:11.740Z,100745.28
2023-04-24T15:40:39.101Z,100751.06
2023-04-24T15:43:06.176Z,100758.00
2023-04-24T15:45:33.962Z,100750.72
2023-04-24T15:48:01.883Z,100744.00
2023-04-24T15:50:29.239Z,100758.50
2023-04-24T15:52:56.313Z,100759.72
2023-04-24T15:55:24.090Z,100765.13
2023-04-24T15:57:51.552Z,100749.50
2023-04-24T16:00:18.929Z,100759.47
2023-04-24T16:02:47.253Z,100771.72
2023-04-24T16:05:15.067Z,100762.66
2023-04-24T16:07:42.108Z,100759.41
2023-04-24T16:10:09.853Z,100769.84
2023-04-24T16:12:37.021Z,100774.31
2023-04-24T16:15:04.588Z,100780.03
2023-04-24T16:17:31.895Z,100771.75
2023-04-24T16:19:58.973Z,100768.56
2023-04-24T16:22:26.311Z,100781.16
2023-04-24T16:24:54.581Z,100778.69
2023-04-24T16:27:22.309Z,100789.25
2023-04-24T16:29:49.546Z,100764.09
2023-04-24T16:32:16.597Z,100778.13
2023-04-24T16:34:43.931Z,100777.25
2023-04-24T16:37:12.268Z,100766.53
2023-04-24T16:39:43.920Z,100780.44
2023-04-24T16:42:13.231Z,100784.44
2023-04-24T16:44:41.368Z,100788.22
2023-04-24T16:47:10.341Z,100796.72
2023-04-24T16:49:37.637Z,100795.03
2023-04-24T16:52:04.732Z,100798.53
2023-04-24T16:54:34.614Z,100797.06
2023-04-24T16:57:02.464Z,100798.81
2023-04-24T16:59:33.432Z,100801.34
2023-04-24T17:02:01.642Z,100811.53
2023-04-24T17:04:29.111Z,100801.41
2023-04-24T17:06:56.290Z,100810.66
2023-04-24T17:09:24.392Z,100795.72
2023-04-24T17:11:51.474Z,100804.41
2023-04-24T17:14:18.503Z,100806.38
2023-04-24T17:16:46.458Z,100806.69
2023-04-24T17:19:13.677Z,100811.78
2023-04-24T17:21:40.945Z,100806.47
2023-04-24T17:24:08.184Z,100806.19
2023-04-24T17:26:35.441Z,100781.72
2023-04-24T17:29:02.573Z,100814.88
2023-04-24T17:31:29.675Z,100807.09
2023-04-24T17:33:56.780Z,100805.94
2023-04-24T17:36:24.133Z,100808.88
2023-04-24T17:38:52.847Z,100805.22
2023-04-24T17:41:20.036Z,100798.88
2023-04-24T17:43:47.237Z,100807.44
2023-04-24T17:46:14.349Z,100794.09
2023-04-24T17:48:41.888Z,100809.72
2023-04-24T17:51:09.019Z,100806.66
2023-04-24T17:53:36.450Z,100811.56
2023-04-24T17:56:03.996Z,100798.91
2023-04-24T17:58:31.606Z,100816.94
2023-04-24T18:00:58.667Z,100812.72
2023-04-24T18:03:25.933Z,100812.00
2023-04-24T18:05:56.147Z,100797.81
2023-04-24T18:08:24.139Z,100811.66
2023-04-24T18:10:51.398Z,100810.34
2023-04-24T18:13:18.546Z,100823.47
2023-04-24T18:15:46.017Z,100811.44
2023-04-24T18:18:13.180Z,100826.09
2023-04-24T18:20:40.398Z,100814.78
2023-04-24T18:23:07.444Z,100809.09
2023-04-24T18:25:34.682Z,100820.47
2023-04-24T18:28:01.852Z,100828.97
2023-04-24T18:30:31.065Z,100824.50
2023-04-24T18:32:58.762Z,100835.84
2023-04-24T18:35:26.164Z,100839.28
2023-04-24T18:37:54.271Z,100840.09
2023-04-24T18:40:21.654Z,100833.75
2023-04-24T18:42:48.860Z,100840.06
2023-04-24T18:45:16.657Z,100839.19
2023-04-24T18:47:44.148Z,100848.34
2023-04-24T18:50:11.850Z,100845.00
2023-04-24T18:52:39.226Z,100838.81
2023-04-24T18:55:06.969Z,100842.63
2023-04-24T18:57:34.307Z,100839.13
2023-04-24T19:00:01.823Z,100850.56
2023-04-24T19:02:29.035Z,100840.19
2023-04-24T19:04:56.196Z,100839.03
2023-04-24T19:07:24.418Z,100870.13
2023-04-24T19:09:51.568Z,100859.75
2023-04-24T19:12:19.580Z,100858.78
2023-04-24T19:14:48.534Z,100868.41
2023-04-24T19:17:22.934Z,100868.97
2023-04-24T19:19:51.091Z,100878.28
2023-04-24T19:22:20.061Z,100882.25
2023-04-24T19:24:47.608Z,100873.44
2023-04-24T19:27:15.718Z,100866.78
2023-04-24T19:29:42.958Z,100869.03
2023-04-24T19:32:10.024Z,100880.88
2023-04-24T19:34:40.284Z,100883.78
2023-04-24T19:37:08.045Z,100876.75
2023-04-24T19:39:35.191Z,100897.59
2023-04-24T19:42:06.492Z,100902.16
2023-04-24T19:44:34.529Z,100897.59
2023-04-24T19:47:01.932Z,100895.59
2023-04-24T19:49:29.146Z,100890.09
2023-04-24T19:51:56.209Z,100886.53
2023-04-24T19:54:23.731Z,100896.84
2023-04-24T19:56:50.794Z,100896.84
2023-04-24T19:59:17.984Z,100897.78
2023-04-24T20:01:45.192Z,100901.25
2023-04-24T20:04:12.829Z,100896.88
2023-04-24T20:06:40.181Z,100906.72
2023-04-24T20:09:07.262Z,100899.50
2023-04-24T20:11:34.563Z,100897.66
2023-04-24T20:14:03.610Z,100888.34
2023-04-24T20:16:31.194Z,100893.13
2023-04-24T20:18:58.823Z,100902.34
2023-04-24T20:21:26.582Z,100904.06
2023-04-24T20:23:53.956Z,100902.13
2023-04-24T20:26:22.139Z,100903.22
2023-04-24T20:28:49.487Z,100900.38
2023-04-24T20:31:17.025Z,100894.94
2023-04-24T20:33:45.523Z,100896.31
2023-04-24T20:36:12.587Z,100903.41
2023-04-24T20:38:39.725Z,100901.84
2023-04-24T20:41:08.715Z,100904.03
2023-04-24T20:43:36.216Z,100904.72
2023-04-24T20:46:03.495Z,100911.56
2023-04-24T20:48:30.565Z,100908.09
2023-04-24T20:50:57.642Z,100905.66
2023-04-24T20:53:24.825Z,100907.88
2023-04-24T20:55:52.547Z,100899.22
2023-04-24T20:58:20.909Z,100900.88
2023-04-24T21:00:48.369Z,100900.34
2023-04-24T21:03:16.449Z,100902.44
2023-04-24T21:05:43.638Z,100907.69
2023-04-24T21:08:10.693Z,100903.59
2023-04-24T21:10:37.731Z,100910.63
2023-04-24T21:13:04.814Z,100912.38
2023-04-24T21:15:32.966Z,100915.00
2023-04-24T21:18:00.624Z,100919.34
2023-04-24T21:20:27.772Z,100917.59
2023-04-24T21:22:54.869Z,100919.66
2023-04-24T21:25:22.609Z,100920.91
2023-04-24T21:27:49.658Z,100919.34
2023-04-24T21:30:16.842Z,100934.16
2023-04-24T21:32:43.961Z,100928.38
2023-04-24T21:35:10.944Z,100935.13
2023-04-24T21:37:39.653Z,100919.50
2023-04-24T21:40:07.883Z,100930.63
2023-04-24T21:42:35.347Z,100936.69
2023-04-24T21:45:02.432Z,100933.34
2023-04-24T21:47:29.529Z,100938.28
2023-04-24T21:49:56.884Z,100939.97
2023-04-24T21:52:24.046Z,100932.00
2023-04-24T21:54:51.071Z,100934.75
2023-04-24T21:57:18.343Z,100929.19
2023-04-24T21:59:45.635Z,100929.06
2023-04-24T22:02:13.256Z,100940.78
2023-04-24T22:04:40.672Z,100932.91
2023-04-24T22:07:07.903Z,100939.53
2023-04-24T22:09:34.881Z,100940.34
2023-04-24T22:12:02.068Z,100939.97
2023-04-24T22:14:29.164Z,100937.56
2023-04-24T22:16:57.834Z,100942.22
2023-04-24T22:19:26.228Z,100950.75
2023-04-24T22:21:54.014Z,100943.28
2023-04-24T22:24:21.090Z,100950.47
2023-04-24T22:26:48.377Z,100946.00
2023-04-24T22:29:15.402Z,100950.63
2023-04-24T22:31:42.634Z,100948.09
2023-04-24T22:34:10.145Z,100949.06
2023-04-24T22:36:37.159Z,100946.66
2023-04-24T22:39:05.350Z,100952.50
2023-04-24T22:41:32.346Z,100946.50
2023-04-24T22:43:59.553Z,100946.66
2023-04-24T22:46:26.732Z,100947.34
2023-04-24T22:48:54.127Z,100953.25
2023-04-24T22:51:21.908Z,100951.50
2023-04-24T22:53:49.777Z,100958.38
2023-04-24T22:56:17.628Z,100960.97
2023-04-24T22:58:45.318Z,100962.59
2023-04-24T23:01:12.514Z,100964.00
2023-04-24T23:03:39.910Z,100963.16
2023-04-24T23:06:07.259Z,100952.84
2023-04-24T23:08:34.408Z,100957.91
2023-04-24T23:11:01.913Z,100959.63
2023-04-24T23:13:29.110Z,100946.00
2023-04-24T23:15:56.231Z,100933.59
2023-04-24T23:18:23.753Z,100952.72
2023-04-24T23:20:51.522Z,100960.09
2023-04-24T23:23:19.217Z,100959.16
2023-04-24T23:25:46.693Z,100953.75
2023-04-24T23:28:13.796Z,100959.69
2023-04-24T23:30:41.025Z,100951.84
2023-04-24T23:33:08.606Z,100954.19
2023-04-24T23:35:36.080Z,100962.91
2023-04-24T23:38:03.197Z,100956.78
2023-04-24T23:40:30.392Z,100944.72
2023-04-24T23:43:06.135Z,100965.59
2023-04-24T23:45:34.618Z,100964.66
2023-04-24T23:48:01.979Z,100953.34
2023-04-24T23:50:29.130Z,100964.53
2023-04-24T23:52:56.591Z,100963.53
2023-04-24T23:55:23.874Z,100964.09
2023-04-24T23:57:50.848Z,100965.13
